Аэропорт: Уфа. Уфа

ICAO: UWUU

METAR:
2019-12-12 10:30:00
UWUU 121030Z 33007MPS 9999 BKN020 M05/M09 Q1022 R32L/450544 NOSIG
METAR:
2019-12-12 07:52:00
TAF UWUU 120752Z 1209/1309 32007G14MPS 9999 BKN020 TXM05/1209Z TNM15/1303Z TEMPO 1209/1218 34010G16MPS 3100 -SHSN OVC011CB TEMPO 1300/1306 22003G08MPS 3100 -SN OVC011